sensor_id;sensor_type;location;lat;lon;timestamp;P1;durP1;ratioP1;P2;durP2;ratioP2
71896;SDS011;59767;51.344;12.362;2023-06-14T00:03:02;4.38;;;2.00;;
71896;SDS011;59767;51.344;12.362;2023-06-14T00:06:08;3.33;;;1.73;;
71896;SDS011;59767;51.344;12.362;2023-06-14T00:09:12;4.47;;;2.10;;
71896;SDS011;59767;51.344;12.362;2023-06-14T00:12:16;5.45;;;2.00;;
71896;SDS011;59767;51.344;12.362;2023-06-14T00:15:20;9.65;;;2.10;;
71896;SDS011;59767;51.344;12.362;2023-06-14T00:18:24;5.72;;;1.98;;
71896;SDS011;59767;51.344;12.362;2023-06-14T00:21:29;4.63;;;2.00;;
71896;SDS011;59767;51.344;12.362;2023-06-14T00:24:34;4.13;;;2.08;;
71896;SDS011;59767;51.344;12.362;2023-06-14T00:27:37;6.55;;;2.03;;
71896;SDS011;59767;51.344;12.362;2023-06-14T00:30:41;5.38;;;2.20;;
71896;SDS011;59767;51.344;12.362;2023-06-14T00:33:47;5.45;;;2.00;;
71896;SDS011;59767;51.344;12.362;2023-06-14T00:36:51;6.80;;;2.35;;
71896;SDS011;59767;51.344;12.362;2023-06-14T00:39:56;10.70;;;2.30;;
71896;SDS011;59767;51.344;12.362;2023-06-14T00:43:00;6.95;;;2.42;;
71896;SDS011;59767;51.344;12.362;2023-06-14T00:46:04;9.10;;;2.50;;
71896;SDS011;59767;51.344;12.362;2023-06-14T00:49:08;6.63;;;2.20;;
71896;SDS011;59767;51.344;12.362;2023-06-14T00:52:14;9.73;;;2.40;;
71896;SDS011;59767;51.344;12.362;2023-06-14T00:55:23;7.22;;;2.25;;
71896;SDS011;59767;51.344;12.362;2023-06-14T00:58:28;5.32;;;2.20;;
71896;SDS011;59767;51.344;12.362;2023-06-14T01:01:32;8.23;;;2.40;;
71896;SDS011;59767;51.344;12.362;2023-06-14T01:04:37;7.28;;;2.17;;
71896;SDS011;59767;51.344;12.362;2023-06-14T01:11:32;5.25;;;2.30;;
71896;SDS011;59767;51.344;12.362;2023-06-14T01:14:40;7.25;;;2.22;;
71896;SDS011;59767;51.344;12.362;2023-06-14T01:17:45;8.00;;;2.30;;
71896;SDS011;59767;51.344;12.362;2023-06-14T01:20:50;9.13;;;2.42;;
71896;SDS011;59767;51.344;12.362;2023-06-14T01:23:54;5.93;;;2.40;;
71896;SDS011;59767;51.344;12.362;2023-06-14T01:26:59;7.80;;;2.20;;
71896;SDS011;59767;51.344;12.362;2023-06-14T01:30:04;9.40;;;2.65;;
71896;SDS011;59767;51.344;12.362;2023-06-14T01:33:09;6.72;;;2.47;;
71896;SDS011;59767;51.344;12.362;2023-06-14T01:36:16;5.90;;;2.60;;
71896;SDS011;59767;51.344;12.362;2023-06-14T01:39:22;5.75;;;2.28;;
71896;SDS011;59767;51.344;12.362;2023-06-14T01:42:28;10.05;;;2.40;;
71896;SDS011;59767;51.344;12.362;2023-06-14T01:45:32;7.13;;;2.20;;
71896;SDS011;59767;51.344;12.362;2023-06-14T01:48:36;5.93;;;2.20;;
71896;SDS011;59767;51.344;12.362;2023-06-14T01:51:41;7.65;;;2.35;;
71896;SDS011;59767;51.344;12.362;2023-06-14T01:54:45;5.75;;;2.35;;
71896;SDS011;59767;51.344;12.362;2023-06-14T01:57:50;5.60;;;2.50;;
71896;SDS011;59767;51.344;12.362;2023-06-14T02:00:54;10.07;;;2.40;;
71896;SDS011;59767;51.344;12.362;2023-06-14T02:04:02;7.03;;;2.42;;
71896;SDS011;59767;51.344;12.362;2023-06-14T02:07:06;4.97;;;2.17;;
71896;SDS011;59767;51.344;12.362;2023-06-14T02:10:10;6.95;;;2.28;;
71896;SDS011;59767;51.344;12.362;2023-06-14T02:13:14;10.68;;;2.33;;
71896;SDS011;59767;51.344;12.362;2023-06-14T02:16:18;8.07;;;2.35;;
71896;SDS011;59767;51.344;12.362;2023-06-14T02:19:23;6.35;;;2.20;;
71896;SDS011;59767;51.344;12.362;2023-06-14T02:22:26;7.22;;;2.13;;
71896;SDS011;59767;51.344;12.362;2023-06-14T02:25:30;6.07;;;2.33;;
71896;SDS011;59767;51.344;12.362;2023-06-14T02:28:35;5.95;;;2.22;;
71896;SDS011;59767;51.344;12.362;2023-06-14T02:31:40;7.32;;;2.35;;
71896;SDS011;59767;51.344;12.362;2023-06-14T02:34:44;8.38;;;2.40;;
71896;SDS011;59767;51.344;12.362;2023-06-14T02:37:53;7.85;;;2.30;;
71896;SDS011;59767;51.344;12.362;2023-06-14T02:40:57;7.28;;;2.35;;
71896;SDS011;59767;51.344;12.362;2023-06-14T02:44:03;5.97;;;2.10;;
71896;SDS011;59767;51.344;12.362;2023-06-14T02:47:07;5.30;;;2.28;;
71896;SDS011;59767;51.344;12.362;2023-06-14T02:50:11;7.32;;;2.33;;
71896;SDS011;59767;51.344;12.362;2023-06-14T02:53:16;5.93;;;2.40;;
71896;SDS011;59767;51.344;12.362;2023-06-14T02:56:20;10.70;;;2.42;;
71896;SDS011;59767;51.344;12.362;2023-06-14T02:59:26;5.70;;;2.20;;
71896;SDS011;59767;51.344;12.362;2023-06-14T03:02:30;6.40;;;2.58;;
71896;SDS011;59767;51.344;12.362;2023-06-14T03:05:34;6.20;;;2.45;;
71896;SDS011;59767;51.344;12.362;2023-06-14T03:08:38;6.35;;;2.00;;
71896;SDS011;59767;51.344;12.362;2023-06-14T03:11:42;7.35;;;2.50;;
71896;SDS011;59767;51.344;12.362;2023-06-14T03:14:46;6.78;;;2.20;;
71896;SDS011;59767;51.344;12.362;2023-06-14T03:17:51;5.55;;;2.33;;
71896;SDS011;59767;51.344;12.362;2023-06-14T03:20:58;11.00;;;2.03;;
71896;SDS011;59767;51.344;12.362;2023-06-14T03:24:02;6.07;;;2.15;;
71896;SDS011;59767;51.344;12.362;2023-06-14T03:27:07;6.45;;;2.35;;
71896;SDS011;59767;51.344;12.362;2023-06-14T03:30:14;5.15;;;2.35;;
71896;SDS011;59767;51.344;12.362;2023-06-14T03:33:19;6.10;;;2.22;;
71896;SDS011;59767;51.344;12.362;2023-06-14T03:36:22;4.88;;;2.25;;
71896;SDS011;59767;51.344;12.362;2023-06-14T03:39:26;8.45;;;2.30;;
71896;SDS011;59767;51.344;12.362;2023-06-14T03:42:30;4.18;;;2.13;;
71896;SDS011;59767;51.344;12.362;2023-06-14T03:45:34;5.28;;;2.13;;
71896;SDS011;59767;51.344;12.362;2023-06-14T03:48:38;8.10;;;2.60;;
71896;SDS011;59767;51.344;12.362;2023-06-14T03:51:43;5.75;;;2.35;;
71896;SDS011;59767;51.344;12.362;2023-06-14T03:54:47;5.82;;;2.40;;
71896;SDS011;59767;51.344;12.362;2023-06-14T03:57:54;5.68;;;2.20;;
71896;SDS011;59767;51.344;12.362;2023-06-14T04:00:58;4.78;;;2.10;;
71896;SDS011;59767;51.344;12.362;2023-06-14T04:04:03;4.85;;;2.45;;
71896;SDS011;59767;51.344;12.362;2023-06-14T04:07:07;5.03;;;2.47;;
71896;SDS011;59767;51.344;12.362;2023-06-14T04:10:12;6.55;;;2.30;;
71896;SDS011;59767;51.344;12.362;2023-06-14T04:13:17;4.88;;;2.60;;
71896;SDS011;59767;51.344;12.362;2023-06-14T04:16:21;6.72;;;2.70;;
71896;SDS011;59767;51.344;12.362;2023-06-14T04:19:26;8.95;;;2.53;;
71896;SDS011;59767;51.344;12.362;2023-06-14T04:22:30;6.30;;;2.53;;
71896;SDS011;59767;51.344;12.362;2023-06-14T04:25:34;9.20;;;2.50;;
71896;SDS011;59767;51.344;12.362;2023-06-14T04:28:38;7.43;;;2.90;;
71896;SDS011;59767;51.344;12.362;2023-06-14T04:31:45;6.10;;;2.92;;
71896;SDS011;59767;51.344;12.362;2023-06-14T04:34:50;8.50;;;2.55;;
71896;SDS011;59767;51.344;12.362;2023-06-14T04:37:57;9.10;;;3.00;;
71896;SDS011;59767;51.344;12.362;2023-06-14T04:41:02;6.15;;;2.67;;
71896;SDS011;59767;51.344;12.362;2023-06-14T04:44:06;7.85;;;2.92;;
71896;SDS011;59767;51.344;12.362;2023-06-14T04:47:11;7.10;;;2.65;;
71896;SDS011;59767;51.344;12.362;2023-06-14T04:50:19;7.07;;;3.00;;
71896;SDS011;59767;51.344;12.362;2023-06-14T04:53:24;6.35;;;2.90;;
71896;SDS011;59767;51.344;12.362;2023-06-14T04:56:28;7.18;;;2.78;;
71896;SDS011;59767;51.344;12.362;2023-06-14T04:59:33;8.02;;;3.38;;
71896;SDS011;59767;51.344;12.362;2023-06-14T05:02:39;12.18;;;3.30;;
71896;SDS011;59767;51.344;12.362;2023-06-14T05:05:44;16.00;;;3.30;;
71896;SDS011;59767;51.344;12.362;2023-06-14T05:08:49;8.45;;;3.30;;
71896;SDS011;59767;51.344;12.362;2023-06-14T05:11:54;14.10;;;3.92;;
71896;SDS011;59767;51.344;12.362;2023-06-14T05:14:59;7.75;;;3.33;;
71896;SDS011;59767;51.344;12.362;2023-06-14T05:18:03;7.70;;;3.60;;
71896;SDS011;59767;51.344;12.362;2023-06-14T05:21:08;12.18;;;3.70;;
71896;SDS011;59767;51.344;12.362;2023-06-14T05:24:12;7.28;;;3.30;;
71896;SDS011;59767;51.344;12.362;2023-06-14T05:27:17;11.70;;;3.58;;
71896;SDS011;59767;51.344;12.362;2023-06-14T05:30:21;9.18;;;3.35;;
71896;SDS011;59767;51.344;12.362;2023-06-14T05:33:25;9.38;;;3.40;;
71896;SDS011;59767;51.344;12.362;2023-06-14T05:36:30;9.55;;;3.80;;
71896;SDS011;59767;51.344;12.362;2023-06-14T05:39:34;10.15;;;3.72;;
71896;SDS011;59767;51.344;12.362;2023-06-14T05:42:38;9.07;;;3.80;;
71896;SDS011;59767;51.344;12.362;2023-06-14T05:45:42;9.25;;;3.70;;
71896;SDS011;59767;51.344;12.362;2023-06-14T05:48:46;10.65;;;3.78;;
71896;SDS011;59767;51.344;12.362;2023-06-14T05:51:49;9.35;;;3.78;;
71896;SDS011;59767;51.344;12.362;2023-06-14T05:54:53;8.77;;;4.10;;
71896;SDS011;59767;51.344;12.362;2023-06-14T05:57:58;8.18;;;3.78;;
71896;SDS011;59767;51.344;12.362;2023-06-14T06:01:05;10.27;;;3.58;;
71896;SDS011;59767;51.344;12.362;2023-06-14T06:04:22;10.60;;;3.88;;
71896;SDS011;59767;51.344;12.362;2023-06-14T06:07:26;10.00;;;3.65;;
71896;SDS011;59767;51.344;12.362;2023-06-14T06:10:30;10.35;;;3.90;;
71896;SDS011;59767;51.344;12.362;2023-06-14T06:13:35;10.98;;;4.00;;
71896;SDS011;59767;51.344;12.362;2023-06-14T06:16:39;7.78;;;3.95;;
71896;SDS011;59767;51.344;12.362;2023-06-14T06:19:44;9.23;;;3.78;;
71896;SDS011;59767;51.344;12.362;2023-06-14T06:22:48;14.95;;;4.30;;
71896;SDS011;59767;51.344;12.362;2023-06-14T06:25:52;8.32;;;4.20;;
71896;SDS011;59767;51.344;12.362;2023-06-14T06:28:56;10.57;;;4.40;;
71896;SDS011;59767;51.344;12.362;2023-06-14T06:32:01;15.93;;;4.40;;
71896;SDS011;59767;51.344;12.362;2023-06-14T06:35:05;9.88;;;3.90;;
71896;SDS011;59767;51.344;12.362;2023-06-14T06:38:10;9.52;;;4.10;;
71896;SDS011;59767;51.344;12.362;2023-06-14T06:41:14;8.57;;;4.20;;
71896;SDS011;59767;51.344;12.362;2023-06-14T06:44:18;9.82;;;3.72;;
71896;SDS011;59767;51.344;12.362;2023-06-14T06:47:22;8.10;;;4.28;;
71896;SDS011;59767;51.344;12.362;2023-06-14T06:50:26;9.05;;;3.83;;
71896;SDS011;59767;51.344;12.362;2023-06-14T06:53:30;11.30;;;3.58;;
71896;SDS011;59767;51.344;12.362;2023-06-14T06:56:46;10.35;;;3.70;;
71896;SDS011;59767;51.344;12.362;2023-06-14T06:59:50;11.57;;;3.88;;
71896;SDS011;59767;51.344;12.362;2023-06-14T07:02:54;6.75;;;3.67;;
71896;SDS011;59767;51.344;12.362;2023-06-14T07:05:58;10.95;;;3.75;;
71896;SDS011;59767;51.344;12.362;2023-06-14T07:09:03;8.90;;;3.58;;
71896;SDS011;59767;51.344;12.362;2023-06-14T07:12:11;6.90;;;3.47;;
71896;SDS011;59767;51.344;12.362;2023-06-14T07:15:16;6.43;;;3.22;;
71896;SDS011;59767;51.344;12.362;2023-06-14T07:18:21;10.75;;;3.25;;
71896;SDS011;59767;51.344;12.362;2023-06-14T07:21:25;7.95;;;3.30;;
71896;SDS011;59767;51.344;12.362;2023-06-14T07:24:29;9.25;;;3.58;;
71896;SDS011;59767;51.344;12.362;2023-06-14T07:27:34;8.77;;;3.30;;
71896;SDS011;59767;51.344;12.362;2023-06-14T07:30:38;6.30;;;3.00;;
71896;SDS011;59767;51.344;12.362;2023-06-14T07:33:42;8.88;;;2.97;;
71896;SDS011;59767;51.344;12.362;2023-06-14T07:36:46;6.93;;;3.03;;
71896;SDS011;59767;51.344;12.362;2023-06-14T07:39:50;9.63;;;3.08;;
71896;SDS011;59767;51.344;12.362;2023-06-14T07:42:54;6.80;;;2.90;;
71896;SDS011;59767;51.344;12.362;2023-06-14T07:45:59;6.90;;;3.00;;
71896;SDS011;59767;51.344;12.362;2023-06-14T07:49:10;11.93;;;2.97;;
71896;SDS011;59767;51.344;12.362;2023-06-14T07:52:15;6.32;;;2.75;;
71896;SDS011;59767;51.344;12.362;2023-06-14T07:55:19;10.68;;;2.80;;
71896;SDS011;59767;51.344;12.362;2023-06-14T07:58:23;10.07;;;2.90;;
71896;SDS011;59767;51.344;12.362;2023-06-14T08:01:28;6.68;;;2.80;;
71896;SDS011;59767;51.344;12.362;2023-06-14T08:04:32;9.02;;;2.85;;
71896;SDS011;59767;51.344;12.362;2023-06-14T08:07:37;8.20;;;2.75;;
71896;SDS011;59767;51.344;12.362;2023-06-14T08:10:42;6.18;;;2.65;;
71896;SDS011;59767;51.344;12.362;2023-06-14T08:13:46;7.28;;;2.50;;
71896;SDS011;59767;51.344;12.362;2023-06-14T08:16:50;5.75;;;2.53;;
71896;SDS011;59767;51.344;12.362;2023-06-14T08:19:53;7.28;;;2.53;;
71896;SDS011;59767;51.344;12.362;2023-06-14T08:23:02;10.27;;;2.50;;
71896;SDS011;59767;51.344;12.362;2023-06-14T08:26:08;9.88;;;2.67;;
71896;SDS011;59767;51.344;12.362;2023-06-14T08:29:13;4.82;;;2.55;;
71896;SDS011;59767;51.344;12.362;2023-06-14T08:32:17;7.95;;;2.50;;
71896;SDS011;59767;51.344;12.362;2023-06-14T08:35:22;11.63;;;2.70;;
71896;SDS011;59767;51.344;12.362;2023-06-14T08:38:27;6.07;;;2.80;;
71896;SDS011;59767;51.344;12.362;2023-06-14T08:41:30;9.50;;;2.83;;
71896;SDS011;59767;51.344;12.362;2023-06-14T08:44:35;6.90;;;2.53;;
71896;SDS011;59767;51.344;12.362;2023-06-14T08:47:39;9.85;;;2.50;;
71896;SDS011;59767;51.344;12.362;2023-06-14T08:50:45;7.18;;;2.72;;
71896;SDS011;59767;51.344;12.362;2023-06-14T08:53:55;6.38;;;2.60;;
71896;SDS011;59767;51.344;12.362;2023-06-14T08:57:05;8.55;;;3.05;;
71896;SDS011;59767;51.344;12.362;2023-06-14T09:00:11;6.03;;;2.42;;
71896;SDS011;59767;51.344;12.362;2023-06-14T09:03:18;5.47;;;2.20;;
71896;SDS011;59767;51.344;12.362;2023-06-14T09:06:24;7.97;;;2.60;;
71896;SDS011;59767;51.344;12.362;2023-06-14T09:09:28;7.78;;;2.38;;
71896;SDS011;59767;51.344;12.362;2023-06-14T09:12:32;7.65;;;2.67;;
71896;SDS011;59767;51.344;12.362;2023-06-14T09:15:36;5.03;;;2.70;;
71896;SDS011;59767;51.344;12.362;2023-06-14T09:18:44;8.60;;;2.60;;
71896;SDS011;59767;51.344;12.362;2023-06-14T09:21:52;6.45;;;2.63;;
71896;SDS011;59767;51.344;12.362;2023-06-14T09:24:56;6.38;;;2.70;;
71896;SDS011;59767;51.344;12.362;2023-06-14T09:28:01;9.70;;;2.65;;
71896;SDS011;59767;51.344;12.362;2023-06-14T09:31:04;6.30;;;2.65;;
71896;SDS011;59767;51.344;12.362;2023-06-14T09:34:09;8.60;;;2.88;;
71896;SDS011;59767;51.344;12.362;2023-06-14T09:37:25;8.68;;;2.70;;
71896;SDS011;59767;51.344;12.362;2023-06-14T09:40:34;5.50;;;2.53;;
71896;SDS011;59767;51.344;12.362;2023-06-14T09:43:39;7.32;;;2.50;;
71896;SDS011;59767;51.344;12.362;2023-06-14T09:46:43;6.88;;;2.42;;
71896;SDS011;59767;51.344;12.362;2023-06-14T09:49:48;8.32;;;2.58;;
71896;SDS011;59767;51.344;12.362;2023-06-14T09:52:53;7.05;;;2.50;;
71896;SDS011;59767;51.344;12.362;2023-06-14T09:56:05;7.65;;;2.47;;
71896;SDS011;59767;51.344;12.362;2023-06-14T09:59:09;4.43;;;2.03;;
71896;SDS011;59767;51.344;12.362;2023-06-14T10:02:24;5.82;;;2.50;;
71896;SDS011;59767;51.344;12.362;2023-06-14T10:05:30;6.70;;;2.47;;
71896;SDS011;59767;51.344;12.362;2023-06-14T10:08:34;7.03;;;2.40;;
71896;SDS011;59767;51.344;12.362;2023-06-14T10:11:40;4.93;;;2.47;;
71896;SDS011;59767;51.344;12.362;2023-06-14T10:14:49;8.48;;;2.50;;
71896;SDS011;59767;51.344;12.362;2023-06-14T10:17:56;6.80;;;2.13;;
71896;SDS011;59767;51.344;12.362;2023-06-14T10:21:18;4.88;;;2.30;;
71896;SDS011;59767;51.344;12.362;2023-06-14T10:24:28;6.10;;;2.28;;
71896;SDS011;59767;51.344;12.362;2023-06-14T10:35:06;5.53;;;1.95;;
71896;SDS011;59767;51.344;12.362;2023-06-14T10:38:14;6.15;;;2.15;;
71896;SDS011;59767;51.344;12.362;2023-06-14T10:41:18;4.53;;;2.28;;
71896;SDS011;59767;51.344;12.362;2023-06-14T10:47:33;5.32;;;2.10;;
71896;SDS011;59767;51.344;12.362;2023-06-14T10:50:43;4.43;;;2.05;;
71896;SDS011;59767;51.344;12.362;2023-06-14T10:53:48;2.95;;;1.70;;
71896;SDS011;59767;51.344;12.362;2023-06-14T10:56:53;7.30;;;2.40;;
71896;SDS011;59767;51.344;12.362;2023-06-14T11:00:02;5.88;;;2.38;;
71896;SDS011;59767;51.344;12.362;2023-06-14T11:03:24;10.35;;;2.30;;
71896;SDS011;59767;51.344;12.362;2023-06-14T11:06:35;4.85;;;2.15;;
71896;SDS011;59767;51.344;12.362;2023-06-14T11:09:51;5.82;;;2.25;;
71896;SDS011;59767;51.344;12.362;2023-06-14T11:13:09;6.05;;;2.20;;
71896;SDS011;59767;51.344;12.362;2023-06-14T11:16:13;8.90;;;2.35;;
71896;SDS011;59767;51.344;12.362;2023-06-14T11:19:19;6.95;;;2.17;;
71896;SDS011;59767;51.344;12.362;2023-06-14T11:22:23;3.20;;;2.03;;
71896;SDS011;59767;51.344;12.362;2023-06-14T11:25:27;4.15;;;2.20;;
71896;SDS011;59767;51.344;12.362;2023-06-14T11:28:38;5.32;;;2.15;;
71896;SDS011;59767;51.344;12.362;2023-06-14T11:31:44;6.30;;;2.40;;
71896;SDS011;59767;51.344;12.362;2023-06-14T11:34:51;5.57;;;2.33;;
71896;SDS011;59767;51.344;12.362;2023-06-14T11:37:55;5.25;;;2.25;;
71896;SDS011;59767;51.344;12.362;2023-06-14T11:41:04;4.55;;;2.10;;
71896;SDS011;59767;51.344;12.362;2023-06-14T11:44:08;5.78;;;2.17;;
71896;SDS011;59767;51.344;12.362;2023-06-14T11:47:12;7.32;;;2.10;;
71896;SDS011;59767;51.344;12.362;2023-06-14T11:50:17;4.90;;;2.20;;
71896;SDS011;59767;51.344;12.362;2023-06-14T11:53:21;3.45;;;2.00;;
71896;SDS011;59767;51.344;12.362;2023-06-14T11:56:25;4.07;;;1.90;;
71896;SDS011;59767;51.344;12.362;2023-06-14T11:59:30;4.50;;;1.95;;
71896;SDS011;59767;51.344;12.362;2023-06-14T12:02:35;6.57;;;2.15;;
71896;SDS011;59767;51.344;12.362;2023-06-14T12:05:39;5.93;;;2.30;;
71896;SDS011;59767;51.344;12.362;2023-06-14T12:08:44;4.55;;;2.00;;
71896;SDS011;59767;51.344;12.362;2023-06-14T12:11:49;4.88;;;1.90;;
71896;SDS011;59767;51.344;12.362;2023-06-14T12:14:54;13.65;;;3.50;;
71896;SDS011;59767;51.344;12.362;2023-06-14T12:17:59;5.85;;;2.33;;
71896;SDS011;59767;51.344;12.362;2023-06-14T12:21:04;6.03;;;2.05;;
71896;SDS011;59767;51.344;12.362;2023-06-14T12:24:11;4.30;;;2.10;;
71896;SDS011;59767;51.344;12.362;2023-06-14T12:27:16;7.13;;;2.22;;
71896;SDS011;59767;51.344;12.362;2023-06-14T12:30:22;5.18;;;2.30;;
71896;SDS011;59767;51.344;12.362;2023-06-14T12:33:27;4.15;;;2.15;;
71896;SDS011;59767;51.344;12.362;2023-06-14T12:36:31;7.28;;;2.55;;
71896;SDS011;59767;51.344;12.362;2023-06-14T12:39:36;4.90;;;2.33;;
71896;SDS011;59767;51.344;12.362;2023-06-14T12:42:44;6.30;;;2.25;;
71896;SDS011;59767;51.344;12.362;2023-06-14T12:45:50;6.28;;;2.38;;
71896;SDS011;59767;51.344;12.362;2023-06-14T12:48:54;7.90;;;2.60;;
71896;SDS011;59767;51.344;12.362;2023-06-14T12:51:58;8.15;;;2.40;;
71896;SDS011;59767;51.344;12.362;2023-06-14T12:55:06;7.35;;;2.60;;
71896;SDS011;59767;51.344;12.362;2023-06-14T12:58:10;7.47;;;2.55;;
71896;SDS011;59767;51.344;12.362;2023-06-14T13:01:16;7.05;;;2.40;;
71896;SDS011;59767;51.344;12.362;2023-06-14T13:04:20;8.52;;;2.40;;
71896;SDS011;59767;51.344;12.362;2023-06-14T13:07:24;5.78;;;2.50;;
71896;SDS011;59767;51.344;12.362;2023-06-14T13:10:28;4.28;;;2.20;;
71896;SDS011;59767;51.344;12.362;2023-06-14T13:13:32;4.15;;;2.40;;
71896;SDS011;59767;51.344;12.362;2023-06-14T13:16:39;6.75;;;2.55;;
71896;SDS011;59767;51.344;12.362;2023-06-14T13:19:43;6.07;;;2.63;;
71896;SDS011;59767;51.344;12.362;2023-06-14T13:22:47;9.75;;;2.53;;
71896;SDS011;59767;51.344;12.362;2023-06-14T13:25:51;8.27;;;2.70;;
71896;SDS011;59767;51.344;12.362;2023-06-14T13:28:56;10.32;;;3.00;;
71896;SDS011;59767;51.344;12.362;2023-06-14T13:32:00;8.07;;;2.85;;
71896;SDS011;59767;51.344;12.362;2023-06-14T13:35:05;5.15;;;2.22;;
71896;SDS011;59767;51.344;12.362;2023-06-14T13:38:09;7.82;;;2.70;;
71896;SDS011;59767;51.344;12.362;2023-06-14T13:41:15;7.47;;;2.80;;
71896;SDS011;59767;51.344;12.362;2023-06-14T13:44:19;9.85;;;2.90;;
71896;SDS011;59767;51.344;12.362;2023-06-14T13:47:25;5.75;;;2.60;;
71896;SDS011;59767;51.344;12.362;2023-06-14T13:50:29;8.05;;;2.80;;
71896;SDS011;59767;51.344;12.362;2023-06-14T13:53:33;7.38;;;2.60;;
71896;SDS011;59767;51.344;12.362;2023-06-14T13:56:37;6.18;;;2.63;;
71896;SDS011;59767;51.344;12.362;2023-06-14T13:59:41;6.40;;;2.67;;
71896;SDS011;59767;51.344;12.362;2023-06-14T14:02:47;6.80;;;2.90;;
71896;SDS011;59767;51.344;12.362;2023-06-14T14:05:54;7.05;;;2.60;;
71896;SDS011;59767;51.344;12.362;2023-06-14T14:09:00;7.47;;;2.97;;
71896;SDS011;59767;51.344;12.362;2023-06-14T14:12:05;7.97;;;2.78;;
71896;SDS011;59767;51.344;12.362;2023-06-14T14:15:09;10.18;;;2.90;;
71896;SDS011;59767;51.344;12.362;2023-06-14T14:18:16;6.50;;;2.60;;
71896;SDS011;59767;51.344;12.362;2023-06-14T14:21:21;6.78;;;2.60;;
71896;SDS011;59767;51.344;12.362;2023-06-14T14:24:25;6.32;;;2.75;;
71896;SDS011;59767;51.344;12.362;2023-06-14T14:27:29;8.13;;;2.60;;
71896;SDS011;59767;51.344;12.362;2023-06-14T14:30:33;8.25;;;2.75;;
71896;SDS011;59767;51.344;12.362;2023-06-14T14:33:38;6.45;;;2.47;;
71896;SDS011;59767;51.344;12.362;2023-06-14T14:36:42;4.93;;;2.30;;
71896;SDS011;59767;51.344;12.362;2023-06-14T14:39:46;5.53;;;2.50;;
71896;SDS011;59767;51.344;12.362;2023-06-14T14:42:50;6.70;;;2.30;;
71896;SDS011;59767;51.344;12.362;2023-06-14T14:45:54;6.05;;;2.55;;
71896;SDS011;59767;51.344;12.362;2023-06-14T14:48:58;6.50;;;2.58;;
71896;SDS011;59767;51.344;12.362;2023-06-14T14:52:04;6.18;;;2.40;;
71896;SDS011;59767;51.344;12.362;2023-06-14T14:55:25;5.90;;;2.40;;
71896;SDS011;59767;51.344;12.362;2023-06-14T14:58:29;6.50;;;2.28;;
71896;SDS011;59767;51.344;12.362;2023-06-14T15:01:33;5.13;;;2.28;;
71896;SDS011;59767;51.344;12.362;2023-06-14T15:04:38;7.85;;;2.30;;
71896;SDS011;59767;51.344;12.362;2023-06-14T15:07:42;4.53;;;2.17;;
71896;SDS011;59767;51.344;12.362;2023-06-14T15:10:48;6.05;;;2.35;;
71896;SDS011;59767;51.344;12.362;2023-06-14T15:13:52;5.03;;;2.10;;
71896;SDS011;59767;51.344;12.362;2023-06-14T15:16:56;8.45;;;2.22;;
71896;SDS011;59767;51.344;12.362;2023-06-14T15:20:02;5.03;;;2.22;;
71896;SDS011;59767;51.344;12.362;2023-06-14T15:23:06;4.25;;;2.13;;
71896;SDS011;59767;51.344;12.362;2023-06-14T15:26:11;6.45;;;2.20;;
71896;SDS011;59767;51.344;12.362;2023-06-14T15:29:15;6.22;;;2.40;;
71896;SDS011;59767;51.344;12.362;2023-06-14T15:32:19;8.85;;;2.75;;
71896;SDS011;59767;51.344;12.362;2023-06-14T15:35:23;7.53;;;2.60;;
71896;SDS011;59767;51.344;12.362;2023-06-14T15:38:27;7.40;;;2.10;;
71896;SDS011;59767;51.344;12.362;2023-06-14T15:41:32;6.85;;;3.15;;
71896;SDS011;59767;51.344;12.362;2023-06-14T15:44:36;5.65;;;2.20;;
71896;SDS011;59767;51.344;12.362;2023-06-14T15:47:40;5.78;;;2.40;;
71896;SDS011;59767;51.344;12.362;2023-06-14T15:50:44;6.40;;;2.58;;
71896;SDS011;59767;51.344;12.362;2023-06-14T15:53:50;10.93;;;3.28;;
71896;SDS011;59767;51.344;12.362;2023-06-14T15:56:54;5.57;;;2.40;;
71896;SDS011;59767;51.344;12.362;2023-06-14T15:59:58;6.28;;;2.60;;
71896;SDS011;59767;51.344;12.362;2023-06-14T16:03:02;7.65;;;2.15;;
71896;SDS011;59767;51.344;12.362;2023-06-14T16:06:06;7.35;;;2.50;;
71896;SDS011;59767;51.344;12.362;2023-06-14T16:09:11;11.20;;;2.90;;
71896;SDS011;59767;51.344;12.362;2023-06-14T16:12:15;9.15;;;2.55;;
71896;SDS011;59767;51.344;12.362;2023-06-14T16:15:19;5.53;;;2.50;;
71896;SDS011;59767;51.344;12.362;2023-06-14T16:18:23;6.18;;;2.50;;
71896;SDS011;59767;51.344;12.362;2023-06-14T16:21:27;6.10;;;2.78;;
71896;SDS011;59767;51.344;12.362;2023-06-14T16:24:31;5.07;;;2.50;;
71896;SDS011;59767;51.344;12.362;2023-06-14T16:27:35;9.80;;;3.00;;
71896;SDS011;59767;51.344;12.362;2023-06-14T16:30:43;6.72;;;2.67;;
71896;SDS011;59767;51.344;12.362;2023-06-14T16:33:46;9.18;;;2.72;;
71896;SDS011;59767;51.344;12.362;2023-06-14T16:36:50;10.13;;;2.88;;
71896;SDS011;59767;51.344;12.362;2023-06-14T16:39:55;8.75;;;2.42;;
71896;SDS011;59767;51.344;12.362;2023-06-14T16:42:59;7.60;;;2.72;;
71896;SDS011;59767;51.344;12.362;2023-06-14T16:46:03;9.05;;;2.65;;
71896;SDS011;59767;51.344;12.362;2023-06-14T16:49:07;5.28;;;2.50;;
71896;SDS011;59767;51.344;12.362;2023-06-14T16:52:11;5.88;;;2.70;;
71896;SDS011;59767;51.344;12.362;2023-06-14T16:55:15;7.00;;;2.85;;
71896;SDS011;59767;51.344;12.362;2023-06-14T16:58:20;8.68;;;3.05;;
71896;SDS011;59767;51.344;12.362;2023-06-14T17:01:25;7.20;;;2.60;;
71896;SDS011;59767;51.344;12.362;2023-06-14T17:04:29;6.03;;;2.50;;
71896;SDS011;59767;51.344;12.362;2023-06-14T17:07:34;9.48;;;2.85;;
71896;SDS011;59767;51.344;12.362;2023-06-14T17:10:38;6.15;;;2.58;;
71896;SDS011;59767;51.344;12.362;2023-06-14T17:13:42;6.15;;;2.75;;
71896;SDS011;59767;51.344;12.362;2023-06-14T17:16:46;6.30;;;2.55;;
71896;SDS011;59767;51.344;12.362;2023-06-14T17:19:50;7.72;;;2.85;;
71896;SDS011;59767;51.344;12.362;2023-06-14T17:22:56;9.45;;;2.88;;
71896;SDS011;59767;51.344;12.362;2023-06-14T17:26:01;8.32;;;2.78;;
71896;SDS011;59767;51.344;12.362;2023-06-14T17:29:05;7.78;;;2.90;;
71896;SDS011;59767;51.344;12.362;2023-06-14T17:32:09;5.90;;;2.40;;
71896;SDS011;59767;51.344;12.362;2023-06-14T17:35:13;6.57;;;2.10;;
71896;SDS011;59767;51.344;12.362;2023-06-14T17:38:17;12.48;;;4.63;;
71896;SDS011;59767;51.344;12.362;2023-06-14T17:41:21;8.95;;;2.65;;
71896;SDS011;59767;51.344;12.362;2023-06-14T17:44:27;9.00;;;2.78;;
71896;SDS011;59767;51.344;12.362;2023-06-14T17:47:31;4.45;;;2.30;;
71896;SDS011;59767;51.344;12.362;2023-06-14T17:50:39;6.63;;;2.75;;
71896;SDS011;59767;51.344;12.362;2023-06-14T17:53:43;6.28;;;2.40;;
71896;SDS011;59767;51.344;12.362;2023-06-14T17:56:47;7.05;;;2.53;;
71896;SDS011;59767;51.344;12.362;2023-06-14T17:59:51;9.57;;;2.30;;
71896;SDS011;59767;51.344;12.362;2023-06-14T18:02:55;5.45;;;2.58;;
71896;SDS011;59767;51.344;12.362;2023-06-14T18:06:02;7.45;;;2.67;;
71896;SDS011;59767;51.344;12.362;2023-06-14T18:09:08;5.93;;;2.50;;
71896;SDS011;59767;51.344;12.362;2023-06-14T18:12:12;7.63;;;2.58;;
71896;SDS011;59767;51.344;12.362;2023-06-14T18:15:16;8.50;;;2.45;;
71896;SDS011;59767;51.344;12.362;2023-06-14T18:18:21;5.55;;;2.30;;
71896;SDS011;59767;51.344;12.362;2023-06-14T18:21:25;5.30;;;2.35;;
71896;SDS011;59767;51.344;12.362;2023-06-14T18:24:29;5.20;;;2.20;;
71896;SDS011;59767;51.344;12.362;2023-06-14T18:27:34;4.88;;;2.28;;
71896;SDS011;59767;51.344;12.362;2023-06-14T18:30:38;7.18;;;2.70;;
71896;SDS011;59767;51.344;12.362;2023-06-14T18:33:42;5.93;;;2.30;;